Alexander Maersk — OZRC2 — position and weather

sailwx.info

Track history (hours):
 
Tides and Currents Weather Stations Pressure Air Temp Water Temp Dewpoint Dewpoint Depression Visibility Wind Speed Wind Dir Waves Ship Positions

Alexander Maersk

Last reported at 2014-Sep-24 17:34 UTC. Time now 2014-Oct-01 22:20 UTC.
Position N 33°27' E 012°54'.

Length 155 m; draft 7.7 m.

Type: Ship. MMSI: 219470000.

Date/timePositionNaut miles runAvg speedWind from/ knotsBaromVisibWave heightAir tempDewpointWater temp
2014-Sep-24 17:34N 33°27' E 012°54'21 9.9
2014-Sep-24 15:23N 33°17' E 013°17'61 2.2
2014-Sep-23 11:31N 32°40' E 014°15'54 1.3
2014-Sep-21 17:33N 32°23' E 015°16'2 0.8
2014-Sep-21 14:31N 32°22' E 015°13'0 0.0
2014-Sep-21 13:31N 32°22' E 015°13'0 0.0
2014-Sep-21 12:31N 32°22' E 015°13'0 0.0
2014-Sep-21 11:31N 32°22' E 015°13'0 0.0
2014-Sep-21 10:31N 32°22' E 015°13'0 0.0
2014-Sep-21 09:31N 32°22' E 015°13'0 0.0
2014-Sep-21 08:31N 32°22' E 015°13'0 0.0
2014-Sep-21 07:31N 32°22' E 015°13'0 0.0
2014-Sep-21 06:31N 32°22' E 015°13'0 0.0
2014-Sep-21 05:31N 32°22' E 015°13'0 0.0
2014-Sep-21 01:16N 32°22' E 015°13'0 0.0
2014-Sep-20 23:31N 32°22' E 015°13'0 0.0
2014-Sep-20 22:31N 32°22' E 015°13'0 0.0
2014-Sep-20 21:31N 32°22' E 015°13'0 0.0
2014-Sep-20 20:16N 32°22' E 015°13'0 0.0
2014-Sep-20 14:25N 32°22' E 015°13'0 0.0
2014-Sep-20 13:16N 32°22' E 015°13'0 0.0
2014-Sep-20 12:31N 32°22' E 015°13'0 0.0
2014-Sep-20 11:19N 32°22' E 015°13'0 0.0
2014-Sep-20 10:25N 32°22' E 015°13'0 0.0
2014-Sep-20 00:22N 32°22' E 015°13'0 0.0
2014-Sep-19 23:31N 32°22' E 015°13'0 0.0
2014-Sep-19 19:07N 32°22' E 015°13'0 0.0
2014-Sep-19 13:31N 32°22' E 015°13'0 0.0
2014-Sep-19 12:28N 32°22' E 015°13'0 0.0
2014-Sep-19 09:31N 32°22' E 015°13'0 0.0
2014-Sep-19 07:25N 32°22' E 015°13'0 0.0
2014-Sep-18 23:13N 32°22' E 015°13'0 0.0
2014-Sep-18 21:19N 32°22' E 015°13'0 0.0
2014-Sep-18 20:25N 32°22' E 015°13'0 0.0
2014-Sep-18 19:19N 32°22' E 015°13'0 0.0
2014-Sep-18 18:31N 32°22' E 015°13'0 0.0
2014-Sep-18 17:31N 32°22' E 015°13'0 0.0
2014-Sep-18 15:25N 32°22' E 015°13'0 0.0
2014-Sep-18 14:04N 32°22' E 015°13'0 0.0
2014-Sep-18 13:31N 32°22' E 015°13'0 0.0
2014-Sep-18 02:25N 32°22' E 015°13'0 0.0
2014-Sep-17 19:25N 32°22' E 015°13'0 0.0
2014-Sep-17 16:10N 32°22' E 015°13'0 0.4
2014-Sep-17 15:32N 32°22' E 015°13'170 8.8
2014-Sep-16 20:22N 35°10' E 014°43'37 8.9
2014-Sep-16 16:14N 35°46' E 014°35'4 0.2
2014-Sep-15 15:33N 35°49' E 014°32'0 0.0
2014-Sep-15 14:33N 35°49' E 014°32'0 0.0
2014-Sep-15 13:33N 35°49' E 014°32'0 0.1
2014-Sep-15 12:33N 35°49' E 014°32'5 5.2
2014-Sep-15 11:33N 35°46' E 014°37'1111.2
2014-Sep-15 10:33N 35°40' E 014°48'1212.1
2014-Sep-15 09:33N 35°33' E 015°01'1212.2
2014-Sep-15 08:33N 35°25' E 015°12'5 4.7
2014-Sep-15 07:28N 35°22' E 015°17'1 1.0
2014-Sep-15 06:33N 35°22' E 015°16'1 1.0
2014-Sep-15 05:31N 35°23' E 015°16'2 1.1
2014-Sep-15 03:13N 35°25' E 015°13'1 1.0
2014-Sep-15 02:33N 35°25' E 015°13'1 1.1
2014-Sep-15 01:20N 35°26' E 015°11'1 1.2
2014-Sep-15 00:18N 35°26' E 015°10'6 1.3
2014-Sep-14 19:15N 35°27' E 015°02'  
Track history (hours):
 
Tides and Currents Weather Stations Pressure Air Temp Water Temp Dewpoint Dewpoint Depression Visibility Wind Speed Wind Dir Waves Ship Positions

Alexander Maersk

Last reported at 2014-Sep-24 17:34 UTC. Time now 2014-Oct-01 22:20 UTC.
Position N 33°27' E 012°54'.

Length 155 m; draft 7.7 m.

Type: Ship. MMSI: 219470000.

Date/timePositionNaut miles runAvg speedWind from/ knotsBaromVisibWave heightAir tempDewpointWater temp
2014-Sep-24 17:34N 33°27' E 012°54'21 9.9
2014-Sep-24 15:23N 33°17' E 013°17'61 2.2
2014-Sep-23 11:31N 32°40' E 014°15'54 1.3
2014-Sep-21 17:33N 32°23' E 015°16'2 0.8
2014-Sep-21 14:31N 32°22' E 015°13'0 0.0
2014-Sep-21 13:31N 32°22' E 015°13'0 0.0
2014-Sep-21 12:31N 32°22' E 015°13'0 0.0
2014-Sep-21 11:31N 32°22' E 015°13'0 0.0
2014-Sep-21 10:31N 32°22' E 015°13'0 0.0
2014-Sep-21 09:31N 32°22' E 015°13'0 0.0
2014-Sep-21 08:31N 32°22' E 015°13'0 0.0
2014-Sep-21 07:31N 32°22' E 015°13'0 0.0
2014-Sep-21 06:31N 32°22' E 015°13'0 0.0
2014-Sep-21 05:31N 32°22' E 015°13'0 0.0
2014-Sep-21 01:16N 32°22' E 015°13'0 0.0
2014-Sep-20 23:31N 32°22' E 015°13'0 0.0
2014-Sep-20 22:31N 32°22' E 015°13'0 0.0
2014-Sep-20 21:31N 32°22' E 015°13'0 0.0
2014-Sep-20 20:16N 32°22' E 015°13'0 0.0
2014-Sep-20 14:25N 32°22' E 015°13'0 0.0
2014-Sep-20 13:16N 32°22' E 015°13'0 0.0
2014-Sep-20 12:31N 32°22' E 015°13'0 0.0
2014-Sep-20 11:19N 32°22' E 015°13'0 0.0
2014-Sep-20 10:25N 32°22' E 015°13'0 0.0
2014-Sep-20 00:22N 32°22' E 015°13'0 0.0
2014-Sep-19 23:31N 32°22' E 015°13'0 0.0
2014-Sep-19 19:07N 32°22' E 015°13'0 0.0
2014-Sep-19 13:31N 32°22' E 015°13'0 0.0
2014-Sep-19 12:28N 32°22' E 015°13'0 0.0
2014-Sep-19 09:31N 32°22' E 015°13'0 0.0
2014-Sep-19 07:25N 32°22' E 015°13'0 0.0
2014-Sep-18 23:13N 32°22' E 015°13'0 0.0
2014-Sep-18 21:19N 32°22' E 015°13'0 0.0
2014-Sep-18 20:25N 32°22' E 015°13'0 0.0
2014-Sep-18 19:19N 32°22' E 015°13'0 0.0
2014-Sep-18 18:31N 32°22' E 015°13'0 0.0
2014-Sep-18 17:31N 32°22' E 015°13'0 0.0
2014-Sep-18 15:25N 32°22' E 015°13'0 0.0
2014-Sep-18 14:04N 32°22' E 015°13'0 0.0
2014-Sep-18 13:31N 32°22' E 015°13'0 0.0
2014-Sep-18 02:25N 32°22' E 015°13'0 0.0
2014-Sep-17 19:25N 32°22' E 015°13'0 0.0
2014-Sep-17 16:10N 32°22' E 015°13'0 0.4
2014-Sep-17 15:32N 32°22' E 015°13'170 8.8
2014-Sep-16 20:22N 35°10' E 014°43'37 8.9
2014-Sep-16 16:14N 35°46' E 014°35'4 0.2
2014-Sep-15 15:33N 35°49' E 014°32'0 0.0
2014-Sep-15 14:33N 35°49' E 014°32'0 0.0
2014-Sep-15 13:33N 35°49' E 014°32'0 0.1
2014-Sep-15 12:33N 35°49' E 014°32'5 5.2
2014-Sep-15 11:33N 35°46' E 014°37'1111.2
2014-Sep-15 10:33N 35°40' E 014°48'1212.1
2014-Sep-15 09:33N 35°33' E 015°01'1212.2
2014-Sep-15 08:33N 35°25' E 015°12'5 4.7
2014-Sep-15 07:28N 35°22' E 015°17'1 1.0
2014-Sep-15 06:33N 35°22' E 015°16'1 1.0
2014-Sep-15 05:31N 35°23' E 015°16'2 1.1
2014-Sep-15 03:13N 35°25' E 015°13'1 1.0
2014-Sep-15 02:33N 35°25' E 015°13'1 1.1
2014-Sep-15 01:20N 35°26' E 015°11'1 1.2
2014-Sep-15 00:18N 35°26' E 015°10'6 1.3
2014-Sep-14 19:15N 35°27' E 015°02'  

Dump ship's entire track history